Time;durP1;ratioP1;P1;durP2;ratioP2;P2;SDS_P1;SDS_P2;PMS_P1;PMS_P2;Temp;Humidity;BMP_temperature;BMP_pressure;BME280_temperature;BME280_humidity;BME280_pressure;Samples;Min_cycle;Max_cycle;Signal;HPM_P1;HPM_P2
2022/10/10 00:01:35;;;;;;;6.25;4.13;;;;;;;-145.49;100.00;62790.56;4989062;28;20042;-74
2022/10/10 00:04:02;;;;;;;7.35;3.92;;;;;;;-145.49;100.00;62790.56;4991954;28;20065;-73
2022/10/10 00:06:29;;;;;;;6.57;3.97;;;;;;;-145.49;100.00;62790.56;4990751;28;20041;-73
2022/10/10 00:08:57;;;;;;;3.63;3.05;;;;;;;-145.49;100.00;62790.56;4990283;28;20037;-72
2022/10/10 00:11:28;;;;;;;5.82;4.47;;;;;;;-145.49;100.00;62790.56;4988682;28;20058;-72
2022/10/10 00:13:59;;;;;;;5.38;4.03;;;;;;;-145.49;100.00;62790.56;4989028;28;20034;-71
2022/10/10 00:16:28;;;;;;;10.50;4.60;;;;;;;-145.49;100.00;62790.56;4987368;28;20046;-73
2022/10/10 00:18:56;;;;;;;5.22;3.45;;;;;;;-145.49;100.00;62790.56;4991634;28;20038;-72
2022/10/10 00:21:22;;;;;;;6.80;4.32;;;;;;;-145.49;100.00;62790.56;4984654;28;20045;-72
2022/10/10 00:23:51;;;;;;;8.20;4.88;;;;;;;-145.49;100.00;62790.56;4990571;28;20042;-73
2022/10/10 00:26:17;;;;;;;4.90;3.92;;;;;;;-145.49;100.00;62790.56;4969252;28;20405;-72
2022/10/10 00:28:48;;;;;;;5.93;3.78;;;;;;;-145.49;100.00;62790.56;4988413;28;20045;-72
2022/10/10 00:31:19;;;;;;;5.38;3.05;;;;;;;-145.49;100.00;62790.56;4986818;28;20499;-72
2022/10/10 00:33:48;;;;;;;6.45;3.75;;;;;;;-145.49;100.00;62790.56;4971703;28;20428;-73
2022/10/10 00:36:15;;;;;;;7.30;4.18;;;;;;;-145.49;100.00;62790.56;4971436;28;20049;-73
2022/10/10 00:38:43;;;;;;;6.50;4.20;;;;;;;-145.49;100.00;62790.56;4988482;28;20516;-74
2022/10/10 00:41:09;;;;;;;5.05;3.53;;;;;;;-145.49;100.00;62790.56;4972939;28;20069;-72
2022/10/10 00:43:40;;;;;;;5.82;3.90;;;;;;;-145.49;100.00;62790.56;4984194;28;20034;-72
2022/10/10 00:46:09;;;;;;;4.93;3.33;;;;;;;-145.49;100.00;62790.56;4987970;28;20038;-72
2022/10/10 00:48:43;;;;;;;5.93;3.38;;;;;;;-145.49;100.00;62790.56;4986961;28;20050;-72
2022/10/10 00:51:17;;;;;;;8.00;4.63;;;;;;;-145.49;100.00;62790.56;4990092;28;20042;-73
2022/10/10 00:53:50;;;;;;;7.70;4.43;;;;;;;-145.49;100.00;62790.56;4985811;28;20038;-72
2022/10/10 00:56:24;;;;;;;5.90;4.53;;;;;;;-145.49;100.00;62790.56;4989996;28;20045;-73
2022/10/10 00:58:52;;;;;;;;;;;;;;;-145.49;100.00;62790.56;4983821;28;20412;-72
2022/10/10 01:01:18;;;;;;;3.45;2.95;;;;;;;-145.49;100.00;62790.56;4984950;28;20364;-73
2022/10/10 01:03:44;;;;;;;10.23;4.70;;;;;;;-145.49;100.00;62790.56;4987452;28;20040;-73
2022/10/10 01:06:17;;;;;;;5.85;3.00;;;;;;;-145.49;100.00;62790.56;4989483;28;20034;-73
2022/10/10 01:08:48;;;;;;;3.75;2.55;;;;;;;-145.49;100.00;62790.56;4986133;28;20392;-73
2022/10/10 01:11:48;;;;;;;7.35;4.03;;;;;;;-145.49;100.00;62790.56;4988120;28;20042;-73
2022/10/10 01:14:46;;;;;;;5.90;3.72;;;;;;;-145.49;100.00;62790.56;4995310;28;20034;-73
2022/10/10 01:17:37;;;;;;;6.35;3.38;;;;;;;-145.49;100.00;62790.56;4987771;28;20039;-73
2022/10/10 01:20:21;;;;;;;6.60;4.28;;;;;;;-145.49;100.00;62790.56;4987720;28;20042;-73
2022/10/10 01:23:14;;;;;;;6.50;4.25;;;;;;;-145.49;100.00;62790.56;4987190;28;20047;-73
2022/10/10 01:26:17;;;;;;;8.15;3.67;;;;;;;-145.49;100.00;62790.56;4972477;28;20435;-73
2022/10/10 01:28:55;;;;;;;4.15;3.28;;;;;;;-145.49;100.00;62790.56;4985877;28;20404;-73
2022/10/10 01:31:28;;;;;;;4.78;3.55;;;;;;;-145.49;100.00;62790.56;4988683;28;20385;-73
2022/10/10 01:34:21;;;;;;;6.38;3.67;;;;;;;-145.49;100.00;62790.56;4987588;28;20042;-73
2022/10/10 01:37:18;;;;;;;5.60;4.07;;;;;;;-145.49;100.00;62790.56;4986322;28;20034;-73
2022/10/10 01:39:59;;;;;;;6.68;3.90;;;;;;;-145.49;100.00;62790.56;4989043;28;20397;-73
2022/10/10 01:42:50;;;;;;;5.70;3.70;;;;;;;-145.49;100.00;62790.56;4985459;28;20034;-73
2022/10/10 01:45:16;;;;;;;7.78;4.13;;;;;;;-145.49;100.00;62790.56;4977919;28;20039;-73
2022/10/10 01:47:48;;;;;;;4.70;3.13;;;;;;;-145.49;100.00;62790.56;4986727;28;20460;-73
2022/10/10 01:50:18;;;;;;;4.38;2.60;;;;;;;-145.49;100.00;62790.56;4985815;28;20412;-72
2022/10/10 01:53:10;;;;;;;7.13;3.50;;;;;;;-145.49;100.00;62790.56;4987419;28;20042;-73
2022/10/10 01:55:50;;;;;;;4.55;3.72;;;;;;;-145.49;100.00;62790.56;4996059;28;20046;-73
2022/10/10 01:58:45;;;;;;;6.20;4.30;;;;;;;-145.49;100.00;62790.56;4988565;28;20042;-73
2022/10/10 02:01:21;;;;;;;11.02;4.55;;;;;;;-145.49;100.00;62790.56;4985047;28;20053;-73
2022/10/10 02:04:01;;;;;;;5.15;2.58;;;;;;;-145.49;100.00;62790.56;4980316;28;20033;-73
2022/10/10 02:06:40;;;;;;;5.85;3.25;;;;;;;-145.49;100.00;62790.56;4986335;28;20038;-73
2022/10/10 02:09:13;;;;;;;4.82;3.00;;;;;;;-145.49;100.00;62790.56;4983582;28;20038;-72
2022/10/10 02:11:47;;;;;;;4.85;3.20;;;;;;;-145.49;100.00;62790.56;4987610;28;20038;-73
2022/10/10 02:14:23;;;;;;;11.80;3.97;;;;;;;-145.49;100.00;62790.56;4986813;28;20030;-73
2022/10/10 02:16:54;;;;;;;21.65;3.70;;;;;;;-145.49;100.00;62790.56;4989443;28;20042;-73
2022/10/10 02:19:26;;;;;;;5.53;3.63;;;;;;;-145.49;100.00;62790.56;4987867;28;20038;-73
2022/10/10 02:21:54;;;;;;;18.85;3.83;;;;;;;-145.49;100.00;62790.56;4987107;28;20042;-72
2022/10/10 02:24:22;;;;;;;4.13;2.85;;;;;;;-145.49;100.00;62790.56;5004392;28;20038;-72
2022/10/10 02:27:04;;;;;;;5.50;3.50;;;;;;;-145.49;100.00;62790.56;4987232;28;20030;-72
2022/10/10 02:29:37;;;;;;;6.40;4.05;;;;;;;-145.49;100.00;62790.56;4974806;28;20042;-73
2022/10/10 02:32:09;;;;;;;7.28;3.35;;;;;;;-145.49;100.00;62790.56;4987834;28;20061;-73
2022/10/10 02:34:43;;;;;;;5.63;3.20;;;;;;;-145.49;100.00;62790.56;4976179;28;20038;-73
2022/10/10 02:37:12;;;;;;;4.00;3.33;;;;;;;-145.49;100.00;62790.56;4991543;28;20046;-73
2022/10/10 02:39:47;;;;;;;5.22;3.13;;;;;;;-145.49;100.00;62790.56;4993230;28;20034;-72
2022/10/10 02:42:15;;;;;;;3.50;2.60;;;;;;;-145.49;100.00;62790.56;4992081;28;20528;-72
2022/10/10 02:44:44;;;;;;;6.15;3.25;;;;;;;-145.49;100.00;62790.56;4987354;28;20370;-72
2022/10/10 02:47:10;;;;;;;9.48;4.10;;;;;;;-145.49;100.00;62790.56;4972059;28;20034;-73
2022/10/10 02:49:37;;;;;;;4.80;2.97;;;;;;;-145.49;100.00;62790.56;4987501;28;20046;-72
2022/10/10 02:52:09;;;;;;;4.85;3.80;;;;;;;-145.49;100.00;62790.56;4988219;28;20042;-73
2022/10/10 02:54:40;;;;;;;;;;;;;;;-145.49;100.00;62790.56;4987212;28;20038;-72
2022/10/10 02:57:06;;;;;;;3.47;3.17;;;;;;;-145.49;100.00;62790.56;4986552;28;19921;-72
2022/10/10 02:59:32;;;;;;;7.38;2.85;;;;;;;-145.49;100.00;62790.56;4985767;28;20037;-72
2022/10/10 03:02:03;;;;;;;4.43;3.58;;;;;;;-145.49;100.00;62790.56;4991653;28;20038;-72
2022/10/10 03:04:32;;;;;;;5.60;3.55;;;;;;;-145.49;100.00;62790.56;4990303;28;20038;-72
2022/10/10 03:07:02;;;;;;;4.50;3.50;;;;;;;-145.49;100.00;62790.56;4987040;28;20042;-73
2022/10/10 03:09:33;;;;;;;2.90;2.47;;;;;;;-145.49;100.00;62790.56;4990802;28;20045;-72
2022/10/10 03:12:00;;;;;;;5.95;4.00;;;;;;;-145.49;100.00;62790.56;4988395;28;20050;-72
2022/10/10 03:14:31;;;;;;;18.90;4.00;;;;;;;-145.49;100.00;62790.56;4990837;28;20042;-72
2022/10/10 03:17:02;;;;;;;7.97;3.42;;;;;;;-145.49;100.00;62790.56;4987262;28;20041;-73
2022/10/10 03:19:28;;;;;;;4.95;3.55;;;;;;;-145.49;100.00;62790.56;4991567;28;20038;-72
2022/10/10 03:21:54;;;;;;;4.20;2.90;;;;;;;-145.49;100.00;62790.56;4986493;28;20038;-72
2022/10/10 03:24:20;;;;;;;9.35;4.78;;;;;;;-145.49;100.00;62790.56;4990660;28;20057;-73
2022/10/10 03:26:48;;;;;;;7.05;3.92;;;;;;;-145.49;100.00;62790.56;4986770;28;20404;-72
2022/10/10 03:29:19;;;;;;;7.15;4.47;;;;;;;-145.49;100.00;62790.56;4983976;28;20041;-72
2022/10/10 03:31:45;;;;;;;5.80;3.67;;;;;;;-145.49;100.00;62790.56;5002646;28;20030;-73
2022/10/10 03:34:13;;;;;;;9.45;5.00;;;;;;;-145.49;100.00;62790.56;4988840;28;20058;-72
2022/10/10 03:36:43;;;;;;;5.15;4.22;;;;;;;-145.49;100.00;62790.56;4989597;28;21291;-73
2022/10/10 03:39:12;;;;;;;5.55;4.07;;;;;;;-145.49;100.00;62790.56;4989308;28;20034;-73
2022/10/10 03:41:42;;;;;;;6.90;4.57;;;;;;;-145.49;100.00;62790.56;4989541;28;20053;-73
2022/10/10 03:44:09;;;;;;;2.65;2.42;;;;;;;-145.49;100.00;62790.56;4956432;28;20042;-73
2022/10/10 03:46:35;;;;;;;4.28;3.17;;;;;;;-145.49;100.00;62790.56;4988748;28;20041;-73
2022/10/10 03:49:01;;;;;;;4.60;3.63;;;;;;;-145.49;100.00;62790.56;4991054;28;20027;-73
2022/10/10 03:51:27;;;;;;;5.72;3.70;;;;;;;-145.49;100.00;62790.56;4983839;28;20026;-73
2022/10/10 03:53:57;;;;;;;5.82;3.60;;;;;;;-145.49;100.00;62790.56;4989233;28;20022;-73
2022/10/10 03:56:24;;;;;;;8.93;3.85;;;;;;;-145.49;100.00;62790.56;4985173;28;20041;-72
2022/10/10 03:58:50;;;;;;;4.95;3.10;;;;;;;-145.49;100.00;62790.56;4988882;28;20404;-73
2022/10/10 04:01:18;;;;;;;7.07;4.30;;;;;;;-145.49;100.00;62790.56;4969590;28;20050;-72
2022/10/10 04:03:45;;;;;;;6.32;4.38;;;;;;;-145.49;100.00;62790.56;4986731;28;20281;-72
2022/10/10 04:06:14;;;;;;;10.98;3.63;;;;;;;-145.49;100.00;62790.56;4990330;28;20042;-71
2022/10/10 04:08:45;;;;;;;6.18;4.32;;;;;;;-145.49;100.00;62790.56;4989182;28;20038;-72
2022/10/10 04:11:13;;;;;;;6.15;4.22;;;;;;;-145.49;100.00;62790.56;4988773;28;20054;-72
2022/10/10 04:13:44;;;;;;;6.05;4.00;;;;;;;-145.49;100.00;62790.56;4988270;28;20041;-73
2022/10/10 04:16:12;;;;;;;6.40;4.30;;;;;;;-145.49;100.00;62790.56;4985086;28;20046;-72
2022/10/10 04:18:38;;;;;;;5.65;4.88;;;;;;;-145.49;100.00;62790.56;4988950;28;20046;-72
2022/10/10 04:21:05;;;;;;;6.18;4.05;;;;;;;-145.49;100.00;62790.56;4987399;28;20042;-73
2022/10/10 04:23:34;;;;;;;5.95;4.68;;;;;;;-145.49;100.00;62790.56;4984488;28;20046;-74
2022/10/10 04:26:00;;;;;;;4.07;3.58;;;;;;;-145.49;100.00;62790.56;4984706;28;20041;-72
2022/10/10 04:28:26;;;;;;;4.50;4.10;;;;;;;-145.49;100.00;62790.56;4987171;28;20034;-73
2022/10/10 04:30:55;;;;;;;5.80;4.65;;;;;;;-145.49;100.00;62790.56;4985688;28;20042;-73
2022/10/10 04:33:24;;;;;;;3.70;3.33;;;;;;;-145.49;100.00;62790.56;5001315;28;20038;-72
2022/10/10 04:35:50;;;;;;;4.65;4.25;;;;;;;-145.49;100.00;62790.56;4970843;28;20404;-72
2022/10/10 04:38:21;;;;;;;6.20;4.32;;;;;;;-145.49;100.00;62790.56;4972154;28;20042;-72
2022/10/10 04:40:49;;;;;;;6.38;4.70;;;;;;;-145.49;100.00;62790.56;4970411;28;20042;-71
2022/10/10 04:43:22;;;;;;;9.10;5.13;;;;;;;-145.49;100.00;62790.56;4984326;28;20416;-73
2022/10/10 04:45:51;;;;;;;6.60;3.63;;;;;;;-145.49;100.00;62790.56;4987856;28;20398;-72
2022/10/10 04:48:20;;;;;;;6.22;4.40;;;;;;;-145.49;100.00;62790.56;4989409;28;20500;-73
2022/10/10 04:50:56;;;;;;;6.55;4.03;;;;;;;-145.49;100.00;62790.56;4987371;28;20030;-73
2022/10/10 04:53:23;;;;;;;5.78;4.32;;;;;;;-145.49;100.00;62790.56;4986987;28;20046;-72
2022/10/10 04:55:52;;;;;;;4.93;3.72;;;;;;;-145.49;100.00;62790.56;4988250;28;20034;-72
2022/10/10 04:58:18;;;;;;;6.18;4.18;;;;;;;-145.49;100.00;62790.56;4988143;28;20030;-72
2022/10/10 05:00:54;;;;;;;5.78;3.88;;;;;;;-145.49;100.00;62790.56;4987078;28;20061;-72
2022/10/10 05:03:21;;;;;;;5.47;4.90;;;;;;;-145.49;100.00;62790.56;4969634;28;20065;-72
2022/10/10 05:05:48;;;;;;;4.32;3.50;;;;;;;-145.49;100.00;62790.56;4988004;28;20037;-72
2022/10/10 05:08:18;;;;;;;7.53;4.97;;;;;;;-145.49;100.00;62790.56;4990856;28;20049;-73
2022/10/10 05:10:47;;;;;;;5.57;5.05;;;;;;;-145.49;100.00;62790.56;4989538;28;20042;-73
2022/10/10 05:13:14;;;;;;;5.95;3.40;;;;;;;-145.49;100.00;62790.56;4989995;28;20154;-72
2022/10/10 05:15:44;;;;;;;10.88;3.40;;;;;;;-145.49;100.00;62790.56;4989381;28;20061;-72
2022/10/10 05:18:12;;;;;;;9.45;4.80;;;;;;;-145.49;100.00;62790.56;4968136;28;20553;-72
2022/10/10 05:20:38;;;;;;;8.77;3.95;;;;;;;-145.49;100.00;62790.56;4983819;28;20042;-72
2022/10/10 05:23:07;;;;;;;6.38;3.47;;;;;;;-145.49;100.00;62790.56;4989993;28;20038;-73
2022/10/10 05:25:36;;;;;;;4.53;2.97;;;;;;;-145.49;100.00;62790.56;4992222;28;21467;-72
2022/10/10 05:28:06;;;;;;;5.07;3.85;;;;;;;-145.49;100.00;62790.56;4990854;28;20045;-72
2022/10/10 05:30:33;;;;;;;4.30;3.90;;;;;;;-145.49;100.00;62790.56;5006694;28;20045;-73
2022/10/10 05:32:59;;;;;;;6.70;3.63;;;;;;;-145.49;100.00;62790.56;4994629;28;20504;-72
2022/10/10 05:35:28;;;;;;;6.10;4.10;;;;;;;-145.49;100.00;62790.56;4995858;28;20049;-73
2022/10/10 05:37:58;;;;;;;8.50;4.95;;;;;;;-145.49;100.00;62790.56;4996772;23;20500;-78
2022/10/10 05:40:25;;;;;;;8.27;3.67;;;;;;;-145.49;100.00;62790.56;4970968;28;20046;-81
2022/10/10 05:42:55;;;;;;;7.60;4.68;;;;;;;-145.49;100.00;62790.56;4973795;28;20027;-81
2022/10/10 05:45:24;;;;;;;6.07;4.05;;;;;;;-145.49;100.00;62790.56;4958863;28;20043;-79
2022/10/10 05:47:54;;;;;;;7.35;4.22;;;;;;;-145.49;100.00;62790.56;4969146;28;20035;-79
2022/10/10 05:50:31;;;;;;;6.43;3.83;;;;;;;-145.49;100.00;62790.56;4977706;28;20042;-79
2022/10/10 05:53:01;;;;;;;6.38;4.80;;;;;;;-145.49;100.00;62790.56;4967476;28;20023;-79
2022/10/10 05:55:31;;;;;;;6.70;5.15;;;;;;;-145.49;100.00;62790.56;4982305;28;20043;-78
2022/10/10 05:58:00;;;;;;;4.95;3.90;;;;;;;-145.49;100.00;62790.56;4986733;28;20058;-79
2022/10/10 06:00:33;;;;;;;5.57;4.35;;;;;;;-145.49;100.00;62790.56;4971540;28;20030;-79
2022/10/10 06:03:04;;;;;;;;;;;;;;;-145.49;100.00;62790.56;4966621;28;20508;-79
2022/10/10 06:05:33;;;;;;;8.07;5.15;;;;;;;-145.49;100.00;62790.56;4972576;28;19930;-80
2022/10/10 06:07:59;;;;;;;8.77;5.97;;;;;;;-145.49;100.00;62790.56;4971911;28;20034;-79
2022/10/10 06:10:25;;;;;;;6.90;4.97;;;;;;;-145.49;100.00;62790.56;4956348;28;20053;-79
2022/10/10 06:12:55;;;;;;;5.90;4.38;;;;;;;-145.49;100.00;62790.56;4965264;28;20509;-79
2022/10/10 06:15:24;;;;;;;8.25;5.50;;;;;;;-145.49;100.00;62790.56;4977153;28;20045;-81
2022/10/10 06:17:52;;;;;;;5.88;3.22;;;;;;;-145.49;100.00;62790.56;4981591;28;20049;-78
2022/10/10 06:20:21;;;;;;;5.07;3.40;;;;;;;-145.49;100.00;62790.56;4968686;28;20397;-80
2022/10/10 06:22:50;;;;;;;13.02;4.43;;;;;;;-145.49;100.00;62790.56;4969411;28;20049;-78
2022/10/10 06:25:16;;;;;;;6.20;5.35;;;;;;;-145.49;100.00;62790.56;4986778;28;20047;-79
2022/10/10 06:27:44;;;;;;;9.27;4.30;;;;;;;-145.49;100.00;62790.56;4984461;28;20576;-81
2022/10/10 06:30:13;;;;;;;8.80;5.10;;;;;;;-145.49;100.00;62790.56;4978060;28;20050;-79
2022/10/10 06:32:42;;;;;;;8.25;4.68;;;;;;;-145.49;100.00;62790.56;4966886;28;20486;-80
2022/10/10 06:35:08;;;;;;;9.02;5.13;;;;;;;-145.49;100.00;62790.56;4966980;28;20035;-80
2022/10/10 06:37:39;;;;;;;7.18;5.35;;;;;;;-145.49;100.00;62790.56;4949749;28;20039;-80
2022/10/10 06:40:06;;;;;;;5.40;3.90;;;;;;;-145.49;100.00;62790.56;4971798;28;20499;-80
2022/10/10 06:42:37;;;;;;;8.15;5.28;;;;;;;-145.49;100.00;62790.56;4971581;28;20038;-80
2022/10/10 06:45:07;;;;;;;7.57;5.13;;;;;;;-145.49;100.00;62790.56;4983530;28;20047;-80
2022/10/10 06:47:40;;;;;;;7.65;4.22;;;;;;;-145.49;100.00;62790.56;4985619;28;20409;-80
2022/10/10 06:50:07;;;;;;;5.70;4.65;;;;;;;-145.49;100.00;62790.56;4961861;28;20163;-80
2022/10/10 06:52:35;;;;;;;6.03;4.50;;;;;;;-145.49;100.00;62790.56;4970599;28;20054;-80
2022/10/10 06:55:04;;;;;;;15.82;4.47;;;;;;;-145.49;100.00;62790.56;4966388;28;20038;-80
2022/10/10 06:57:32;;;;;;;7.70;4.13;;;;;;;-145.49;100.00;62790.56;4971898;28;20034;-80
2022/10/10 07:00:04;;;;;;;4.40;4.00;;;;;;;-145.49;100.00;62790.56;4973493;28;20043;-80
2022/10/10 07:02:33;;;;;;;7.97;5.35;;;;;;;-145.49;100.00;62790.56;4946657;28;20043;-80
2022/10/10 07:05:01;;;;;;;5.32;3.95;;;;;;;-145.49;100.00;62790.56;4971190;28;20386;-81
2022/10/10 07:07:27;;;;;;;9.43;4.68;;;;;;;-145.49;100.00;62790.56;4973617;28;20051;-81
2022/10/10 07:09:54;;;;;;;7.30;5.07;;;;;;;-145.49;100.00;62790.56;4984304;28;20031;-81
2022/10/10 07:12:20;;;;;;;16.42;5.03;;;;;;;-145.49;100.00;62790.56;4972982;28;20034;-82
2022/10/10 07:14:51;;;;;;;7.95;4.70;;;;;;;-145.49;100.00;62790.56;4969059;28;20027;-82
2022/10/10 07:17:22;;;;;;;12.07;5.50;;;;;;;-145.49;100.00;62790.56;4979429;28;20053;-82
2022/10/10 07:19:48;;;;;;;9.63;4.90;;;;;;;-145.49;100.00;62790.56;4973209;28;20050;-82
2022/10/10 07:22:14;;;;;;;8.15;4.25;;;;;;;-145.49;100.00;62790.56;4977752;28;20035;-82
2022/10/10 07:24:43;;;;;;;9.02;5.57;;;;;;;-145.49;100.00;62790.56;4970785;28;20041;-82
2022/10/10 07:27:11;;;;;;;5.82;5.22;;;;;;;-145.49;100.00;62790.56;4971655;28;20053;-82
2022/10/10 07:29:40;;;;;;;6.72;4.95;;;;;;;-145.49;100.00;62790.56;4954792;28;20392;-82
2022/10/10 07:32:07;;;;;;;14.45;5.72;;;;;;;-145.49;100.00;62790.56;4977790;28;20399;-82
2022/10/10 07:34:37;;;;;;;6.78;4.93;;;;;;;-145.49;100.00;62790.56;4970964;28;20050;-82
2022/10/10 07:37:03;;;;;;;6.88;4.80;;;;;;;-145.49;100.00;62790.56;4952580;28;20039;-83
2022/10/10 07:39:32;;;;;;;7.32;4.60;;;;;;;-145.49;100.00;62790.56;4966225;28;20493;-83
2022/10/10 07:42:03;;;;;;;6.03;5.22;;;;;;;-145.49;100.00;62790.56;4979343;28;20034;-83
2022/10/10 07:44:32;;;;;;;7.47;4.93;;;;;;;-145.49;100.00;62790.56;4957067;28;20050;-83
2022/10/10 07:47:00;;;;;;;12.70;5.90;;;;;;;-145.49;100.00;62790.56;4973065;28;20049;-83
2022/10/10 07:49:26;;;;;;;8.25;4.68;;;;;;;-145.49;100.00;62790.56;4963640;28;20042;-84
2022/10/10 07:51:53;;;;;;;5.50;3.95;;;;;;;-145.49;100.00;62790.56;4986278;28;20039;-81
2022/10/10 07:54:19;;;;;;;7.25;5.45;;;;;;;-145.49;100.00;62790.56;4982191;28;20035;-81
2022/10/10 07:56:47;;;;;;;8.65;5.43;;;;;;;-145.49;100.00;62790.56;4970120;28;20042;-81
2022/10/10 07:59:16;;;;;;;9.18;5.93;;;;;;;-145.49;100.00;62790.56;4959386;28;20046;-81
2022/10/10 08:01:44;;;;;;;6.93;4.47;;;;;;;-145.49;100.00;62790.56;4985373;28;20038;-81
2022/10/10 08:04:13;;;;;;;6.20;4.28;;;;;;;-145.49;100.00;62790.56;4967720;28;20397;-81
2022/10/10 08:06:45;;;;;;;7.93;4.45;;;;;;;-145.49;100.00;62790.56;4971569;28;20046;-81
2022/10/10 08:09:11;;;;;;;4.32;3.92;;;;;;;-145.49;100.00;62790.56;4979179;28;20038;-83
2022/10/10 08:11:39;;;;;;;7.13;4.53;;;;;;;-145.49;100.00;62790.56;4974558;28;20496;-82
2022/10/10 08:14:06;;;;;;;4.72;4.28;;;;;;;-145.49;100.00;62790.56;4981425;28;20041;-82
2022/10/10 08:16:34;;;;;;;13.25;4.93;;;;;;;-145.49;100.00;62790.56;4962838;28;20035;-82
2022/10/10 08:19:03;;;;;;;12.23;4.57;;;;;;;-145.49;100.00;62790.56;4969868;28;20412;-82
2022/10/10 08:21:35;;;;;;;6.68;4.78;;;;;;;-145.49;100.00;62790.56;4984116;28;20045;-82
2022/10/10 08:24:03;;;;;;;10.05;5.15;;;;;;;-145.49;100.00;62790.56;4969109;28;20035;-82
2022/10/10 08:26:32;;;;;;;6.55;5.35;;;;;;;-145.49;100.00;62790.56;4964427;28;20103;-82
2022/10/10 08:29:03;;;;;;;11.43;5.10;;;;;;;-145.49;100.00;62790.56;4965682;28;20523;-83
2022/10/10 08:31:31;;;;;;;9.75;5.00;;;;;;;-145.49;100.00;62790.56;4980456;28;20400;-83
2022/10/10 08:33:57;;;;;;;16.08;5.50;;;;;;;-145.49;100.00;62790.56;4992462;28;20030;-83
2022/10/10 08:36:28;;;;;;;8.02;4.20;;;;;;;-145.49;100.00;62790.56;4977914;28;20039;-83
2022/10/10 08:38:59;;;;;;;6.13;3.80;;;;;;;-145.49;100.00;62790.56;4971085;28;20493;-82
2022/10/10 08:41:39;;;;;;;9.55;4.78;;;;;;;-145.49;100.00;62790.56;4968263;28;20038;-83
2022/10/10 08:44:20;;;;;;;7.40;5.20;;;;;;;-145.49;100.00;62790.56;4972093;28;20039;-83
2022/10/10 08:46:51;;;;;;;7.80;4.35;;;;;;;-145.49;100.00;62790.56;4980229;28;20053;-83
2022/10/10 08:49:19;;;;;;;5.85;5.25;;;;;;;-145.49;100.00;62790.56;4969333;28;20041;-83
2022/10/10 08:51:57;;;;;;;8.05;4.93;;;;;;;-145.49;100.00;62790.56;4972235;28;20400;-83
2022/10/10 08:54:28;;;;;;;13.63;5.15;;;;;;;-145.49;100.00;62790.56;4978455;28;20034;-83
2022/10/10 08:57:03;;;;;;;6.15;4.82;;;;;;;-145.49;100.00;62790.56;4977832;28;20402;-83
2022/10/10 08:59:38;;;;;;;5.82;4.32;;;;;;;-145.49;100.00;62790.56;4966525;28;20042;-84
2022/10/10 09:02:40;;;;;;;8.43;5.20;;;;;;;-145.49;100.00;62790.56;4969955;28;20050;-85
2022/10/10 09:05:20;;;;;;;8.35;4.78;;;;;;;-145.49;100.00;62790.56;4982353;28;20034;-84
2022/10/10 09:08:05;;;;;;;10.05;4.75;;;;;;;-145.49;100.00;62790.56;4966914;28;20038;-84
2022/10/10 09:10:42;;;;;;;10.00;6.00;;;;;;;-145.49;100.00;62790.56;4965593;28;20397;-84
2022/10/10 09:13:18;;;;;;;9.43;4.50;;;;;;;-145.49;100.00;62790.56;4965865;28;20515;-84
2022/10/10 09:15:44;;;;;;;9.75;5.15;;;;;;;-145.49;100.00;62790.56;4962221;28;20035;-84
2022/10/10 09:18:31;;;;;;;7.10;5.10;;;;;;;-145.49;100.00;62790.56;4970215;28;20039;-84
2022/10/10 09:21:17;;;;;;;13.32;5.25;;;;;;;-145.49;100.00;62790.56;4954383;28;20042;-86
2022/10/10 09:24:16;;;;;;;6.60;4.68;;;;;;;-145.49;100.00;62790.56;4979660;28;20042;-84
2022/10/10 09:26:55;;;;;;;5.78;5.10;;;;;;;-145.49;100.00;62790.56;4975691;28;20027;-84
2022/10/10 09:29:37;;;;;;;6.65;4.43;;;;;;;-145.49;100.00;62790.56;4969315;28;20038;-84
2022/10/10 09:32:18;;;;;;;6.70;5.43;;;;;;;-145.49;100.00;62790.56;4975878;28;20544;-84
2022/10/10 09:34:57;;;;;;;6.03;4.72;;;;;;;-145.49;100.00;62790.56;4982312;28;20622;-84
2022/10/10 09:37:31;;;;;;;8.02;4.95;;;;;;;-145.49;100.00;62790.56;4972728;28;20042;-85
2022/10/10 09:40:01;;;;;;;8.55;5.05;;;;;;;-145.49;100.00;62790.56;4981571;28;20393;-84
2022/10/10 09:42:34;;;;;;;;;;;;;;;-145.49;100.00;62790.56;4975711;28;20039;-85
2022/10/10 09:45:13;;;;;;;15.60;6.97;;;;;;;-145.49;100.00;62790.56;4977831;28;19921;-85
2022/10/10 09:47:41;;;;;;;7.45;5.28;;;;;;;-145.49;100.00;62790.56;4975169;28;20042;-85
2022/10/10 09:50:12;;;;;;;9.98;6.85;;;;;;;-145.49;100.00;62790.56;4960582;28;20050;-85
2022/10/10 09:52:38;;;;;;;18.83;7.00;;;;;;;-145.49;100.00;62790.56;4973246;28;20047;-85
2022/10/10 09:55:33;;;;;;;6.65;4.78;;;;;;;-145.49;100.00;62790.56;4973835;28;20038;-85
2022/10/10 09:58:21;;;;;;;9.90;5.05;;;;;;;-145.49;100.00;62790.56;4965956;28;20043;-84
2022/10/10 10:00:53;;;;;;;11.55;5.68;;;;;;;-145.49;100.00;62790.56;4974375;28;20035;-85
2022/10/10 10:03:21;;;;;;;10.80;5.80;;;;;;;-145.49;100.00;62790.56;4974935;28;20382;-84
2022/10/10 10:06:15;;;;;;;7.57;4.82;;;;;;;-145.49;100.00;62790.56;4974980;28;20034;-84
2022/10/10 10:08:44;;;;;;;8.38;5.25;;;;;;;-145.49;100.00;62790.56;4973020;28;20062;-83
2022/10/10 10:11:26;;;;;;;6.55;4.60;;;;;;;-145.49;100.00;62790.56;4968244;28;20034;-84
2022/10/10 10:14:01;;;;;;;8.70;5.82;;;;;;;-145.49;100.00;62790.56;4973440;28;20042;-84
2022/10/10 10:16:37;;;;;;;8.32;4.30;;;;;;;-145.49;100.00;62790.56;4971032;28;20042;-83
2022/10/10 10:19:07;;;;;;;9.18;4.45;;;;;;;-145.49;100.00;62790.56;4962184;28;20039;-84
2022/10/10 10:21:51;;;;;;;9.40;5.32;;;;;;;-145.49;100.00;62790.56;4973894;28;20050;-83
2022/10/10 10:24:29;;;;;;;6.10;3.88;;;;;;;-145.49;100.00;62790.56;4972113;28;20054;-83
2022/10/10 10:27:09;;;;;;;7.40;4.88;;;;;;;-145.49;100.00;62790.56;4988867;28;20382;-83
2022/10/10 10:29:44;;;;;;;6.97;5.03;;;;;;;-145.49;100.00;62790.56;4974615;28;20392;-83
2022/10/10 10:32:18;;;;;;;8.73;3.88;;;;;;;-145.49;100.00;62790.56;4990083;28;20041;-83
2022/10/10 10:34:57;;;;;;;7.53;4.47;;;;;;;-145.49;100.00;62790.56;4973539;28;20054;-83
2022/10/10 10:37:53;;;;;;;7.75;5.32;;;;;;;-145.49;100.00;62790.56;4972977;28;20397;-82
2022/10/10 10:40:37;;;;;;;6.32;4.30;;;;;;;-145.49;100.00;62790.56;4978405;28;20045;-83
2022/10/10 10:43:08;;;;;;;;;;;;;;;-145.49;100.00;62790.56;4972365;28;20053;-83
2022/10/10 10:46:13;;;;;;;7.60;3.75;;;;;;;-145.49;100.00;62790.56;4969421;28;19918;-84
2022/10/10 10:48:53;;;;;;;5.90;4.15;;;;;;;-145.49;100.00;62790.56;4971941;28;20035;-91
2022/10/10 10:51:41;;;;;;;5.63;4.63;;;;;;;-145.49;100.00;62790.56;4973278;28;20428;-84
2022/10/10 10:54:16;;;;;;;10.02;4.63;;;;;;;-145.49;100.00;62790.56;4980913;28;20039;-82
2022/10/10 10:56:54;;;;;;;5.95;4.93;;;;;;;-145.49;100.00;62790.56;4973902;28;20034;-84
2022/10/10 10:59:29;;;;;;;5.65;3.72;;;;;;;-145.49;100.00;62790.56;4956237;28;20520;-84
2022/10/10 11:02:08;;;;;;;13.00;5.28;;;;;;;-145.49;100.00;62790.56;4974223;28;20396;-83
2022/10/10 11:04:40;;;;;;;7.57;4.75;;;;;;;-145.49;100.00;62790.56;4971400;28;20053;-84
2022/10/10 11:07:22;;;;;;;11.83;4.23;;;;;;;-145.49;100.00;62790.56;4973766;28;20042;-84
2022/10/10 11:10:15;;;;;;;4.55;4.03;;;;;;;-145.49;100.00;62790.56;4987666;28;20062;-83
2022/10/10 11:12:48;;;;;;;7.60;4.35;;;;;;;-145.49;100.00;62790.56;4965910;28;20027;-84
2022/10/10 11:15:21;;;;;;;6.40;3.58;;;;;;;-145.49;100.00;62790.56;4987322;28;20424;-84
2022/10/10 11:18:04;;;;;;;5.25;3.65;;;;;;;-145.49;100.00;62790.56;4972264;28;20061;-86
2022/10/10 11:20:40;;;;;;;9.10;3.55;;;;;;;-145.49;100.00;62790.56;4973785;28;20045;-84
2022/10/10 11:23:11;;;;;;;10.32;3.33;;;;;;;-145.49;100.00;62790.56;4973249;28;20049;-83
2022/10/10 11:25:53;;;;;;;6.35;3.40;;;;;;;-145.49;100.00;62790.56;4973077;28;20054;-85
2022/10/10 11:28:32;;;;;;;6.35;3.40;;;;;;;-145.49;100.00;62790.56;4973374;28;20042;-85
2022/10/10 11:31:04;;;;;;;9.10;3.97;;;;;;;-145.49;100.00;62790.56;4973595;28;20034;-85
2022/10/10 11:33:35;;;;;;;12.47;4.47;;;;;;;-145.49;100.00;62790.56;4965869;28;20038;-86